Aérodrome :
LOGIN :

S'inscrire | Disclaimer

   EN    FR    IT 

 










Légende :    VFR   VFR Marginal   IFR   IFR Intensif   IFR Très Intensif
Visi : 
Plafond : 
>= 8 km
>= 3000ft
5 à 8 km
1000 à 3000 ft
1500m à 5 km
500 à 1000 ft
800 à 1500m
200 à 500 ft
< 800m
< 200 ft
Symboles :   Orages  Brouillard  Fortes neiges  Fortes précipitations  Vent > 20 kt
SIGMETs :   Divers  Orages  Givrage  Turbulence  Onde Orograph.  Cendres Volcan.







- Altitude de l'aérodrome : 187 ft


ETNW - Wunstorf AB

DERNIER METAR :
  • 270220Z 27003KT 9999 BKN050 01/M01 Q1014 BLU

METARs EXPIRÉS :
  • 270120Z VRB03KT 9999 BKN060 01/M01 Q1014 BLU
  • 270020Z 27002KT 9999 FEW060 01/M00 Q1014 BLU+

TAF TAF ETNW
Valide du 26 à 23h jusqu'au 27 à 23h UTC


262205Z 2623/2723 28006KT 9999 NSW SCT050 SCT100
PROB30 2701/2706 VRB03KT 2000 BR FEW100
TEMPO 2712/2721 27015G25KT 4000 SHRAGS BKN010 BKN020CB BY ETGL
Pas de NOTAMs connus pour ce terrain.



MET'MAP, la Météo Aéronautique d'un coup d'oeil ! - Copyright ORBIFLY Décembre 2007 - Disclaimer

ORBIFLY MET'MAP TEAM :

Programmation & Développement : Alexandra Zaïnal
Conception & Développement : Baudouin d'Aumeries
Co-Programmation & Développement : Marc-Olivier Méhu
Soutien technique & logistique : Manuel Goepfert

Contact : metmap@orbifly.com




SOURCES & CREDITS :

   NOAA